(°C)
-11°
-12°
-12°
-13°
-13°
-14°
-14°
(°C)
-18°
-18°
-18°
-18°
-19°
-19°
-19°
NNE
NNE
شمال
شمال
NNW
NNW
شمال
(كم/سا)
15-25
14-24
13-23
11-22
9-21
8-18
6-14
(مم)
0
0
0
0
0
0
0
(%)
61
55
39
24
8
6
4

Sun elevation

/ -31.9°
sun-icon
UV 7
06:19
19:49
هلال الصباح (81°)
11:22
02:12

METAR for والدن (K33V)

الوقت Conditions درجة الحرارة/
نقطة الندى
رياح مجال رؤية حالة الطقس غيوم الضغط Change Raw
VFR °C / °C 330º 9kt >10km - Scattered Clouds 7000ft - K33V 200455Z AUTO 33009KT 10SM SCT070 SCT110 M11/M15 A3009 RMK AO2 T11111153
VFR °C / °C 320º 7kt >10km - Scattered Clouds 6000ft - K33V 200435Z AUTO 32007KT 10SM SCT060 SCT075 SCT110 M11/M15 A3008 RMK AO2 T11131152
VFR -9.8°C / °C 320º 7kt >10km - Scattered Clouds 7500ft - K33V 200415Z AUTO 32007KT 10SM SCT075 SCT095 M10/M14 A3007 RMK AO2 T10981139
VFR -9.7°C / °C 310º 5kt >10km - Scattered Clouds 2600ft - K33V 200355Z AUTO 31005KT 10SM SCT026 SCT060 BKN075 M10/M14 A3007 RMK AO2 T10971139 400971097
VFR -9.1°C / °C 340º 4kt >10km - Scattered Clouds 2200ft - K33V 200335Z AUTO 34004KT 10SM SCT022 SCT032 BKN049 M09/M13 A3006 RMK AO2 T10911129
VFR -9.2°C / °C 310º 5kt >10km - Scattered Clouds 3000ft - K33V 200315Z AUTO 31005KT 10SM SCT030 BKN045 OVC055 M09/M14 A3003 RMK AO2 T10921136
VFR -9.7°C / °C 320º 7kt >10km - Scattered Clouds 1200ft - K33V 200255Z AUTO 32007KT 10SM SCT012 SCT021 OVC037 M10/M14 A3003 RMK AO2 T10971136
MVFR -9.7°C / °C 330º 11kt 4800m - Broken Clouds 1300ft - K33V 200235Z AUTO 33011KT 3SM BKN013 OVC019 M10/M13 A3002 RMK AO2 T10971135
IFR -9°C / °C 310º 10kt 4000m - Scattered Clouds 700ft - K33V 200215Z AUTO 31010KT 2 1/2SM SCT007 BKN012 OVC022 M09/M12 A3001 RMK AO2 T10901117
IFR -8.3°C / °C 360º 5kt 3200m - Overcast 800ft - K33V 200155Z AUTO 36005KT 2SM OVC008 M08/M11 A3000 RMK AO2 T10831107
LIFR -8.3°C / °C 340º 6kt 1200m - Overcast 600ft - K33V 200135Z AUTO 34006KT 3/4SM OVC006 M08/M11 A2998 RMK AO2 T10831106
LIFR -8.2°C / °C 320º 9kt 800m - Overcast 600ft - K33V 200115Z AUTO 32009KT 1/2SM OVC006 M08/M11 A2998 RMK AO2 T10821107
IFR -7°C / -9.5°C 310º 7kt 2000m - Scattered Clouds 600ft - K33V 200055Z AUTO 31007KT 1 1/4SM SCT006 BKN010 OVC016 M07/M09 A2998 RMK AO2 T10701095
LIFR -7°C / °C 30º 10kt Gust 15kt 1200m - Overcast 400ft - K33V 200035Z AUTO 03010G15KT 3/4SM OVC004 M07/M10 A2996 RMK AO2 T10701100
LIFR -5.6°C / -8.4°C 30º 8kt 400m - Overcast 400ft - K33V 200015Z AUTO 03008KT 1/4SM OVC004 M06/M08 A2995 RMK AO2 T10561084
IFR -4°C / -8.7°C 50º 6kt 2400m - Scattered Clouds 600ft - K33V 192355Z AUTO 05006KT 1 1/2SM SCT006 BKN010 OVC015 M04/M09 A2993 RMK AO2 T10401087 10097 21040
MVFR -2.7°C / -8.1°C 350º 10kt >10km - Scattered Clouds 2000ft - K33V 192335Z AUTO 35010KT 10SM SCT020 BKN030 OVC044 M03/M08 A2991 RMK AO2 T10271081
VFR -1.3°C / -6.6°C 350º 11kt >10km - Scattered Clouds 2600ft - K33V 192315Z AUTO 35011KT 10SM SCT026 BKN036 OVC046 M01/M07 A2990 RMK AO2 T10131066
MVFR -1.3°C / -6°C 350º 14kt Gust 22kt >10km - Scattered Clouds 1800ft - K33V 192255Z AUTO 35014G22KT 10SM SCT018 BKN026 OVC035 M01/M06 A2988 RMK AO2 T10131060
VFR -1.3°C / -4.2°C 360º 13kt Gust 18kt >10km - Scattered Clouds 400ft - K33V 192235Z AUTO 36013G18KT 10SM SCT004 BKN033 OVC046 M01/M04 A2988 RMK AO2 T10131042
MVFR -1°C / -3.5°C 350º 15kt >10km - Scattered Clouds 500ft - K33V 192215Z AUTO 35015KT 10SM SCT005 BKN012 BKN026 M01/M03 A2987 RMK AO2 T10101035
MVFR 0°C / -2.7°C 350º 12kt 6400m - Scattered Clouds 1000ft - K33V 192155Z AUTO 35012KT 4SM SCT010 BKN025 OVC031 00/M03 A2987 RMK AO2 T00001027
VFR 0.9°C / -2.3°C 330º 14kt Gust 19kt >10km - Scattered Clouds 2500ft - K33V 192135Z AUTO 33014G19KT 7SM SCT025 BKN034 BKN046 01/M02 A2988 RMK AO2 T00091023
VFR 3.7°C / -3.5°C 290º 16kt Gust 20kt >10km - Scattered Clouds 6000ft - K33V 192115Z AUTO 29016G20KT 10SM SCT060 BKN090 04/M03 A2987 RMK AO2 T00371035

VFR

°C / °C

[أكثر]
رياح 330º 9kt
مجال رؤية >10km
حالة الطقس -
غيوم Scattered Clouds 7000ft
الضغط
Change -
Raw K33V 200455Z AUTO 33009KT 10SM SCT070 SCT110 M11/M15 A3009 RMK AO2 T11111153

VFR

°C / °C

[أكثر]
رياح 320º 7kt
مجال رؤية >10km
حالة الطقس -
غيوم Scattered Clouds 6000ft
الضغط
Change -
Raw K33V 200435Z AUTO 32007KT 10SM SCT060 SCT075 SCT110 M11/M15 A3008 RMK AO2 T11131152

VFR

-9.8°C / °C

[أكثر]
رياح 320º 7kt
مجال رؤية >10km
حالة الطقس -
غيوم Scattered Clouds 7500ft
الضغط
Change -
Raw K33V 200415Z AUTO 32007KT 10SM SCT075 SCT095 M10/M14 A3007 RMK AO2 T10981139

VFR

-9.7°C / °C

[أكثر]
رياح 310º 5kt
مجال رؤية >10km
حالة الطقس -
غيوم Scattered Clouds 2600ft
الضغط
Change -
Raw K33V 200355Z AUTO 31005KT 10SM SCT026 SCT060 BKN075 M10/M14 A3007 RMK AO2 T10971139 400971097

VFR

-9.1°C / °C

[أكثر]
رياح 340º 4kt
مجال رؤية >10km
حالة الطقس -
غيوم Scattered Clouds 2200ft
الضغط
Change -
Raw K33V 200335Z AUTO 34004KT 10SM SCT022 SCT032 BKN049 M09/M13 A3006 RMK AO2 T10911129

VFR

-9.2°C / °C

[أكثر]
رياح 310º 5kt
مجال رؤية >10km
حالة الطقس -
غيوم Scattered Clouds 3000ft
الضغط
Change -
Raw K33V 200315Z AUTO 31005KT 10SM SCT030 BKN045 OVC055 M09/M14 A3003 RMK AO2 T10921136

VFR

-9.7°C / °C

[أكثر]
رياح 320º 7kt
مجال رؤية >10km
حالة الطقس -
غيوم Scattered Clouds 1200ft
الضغط
Change -
Raw K33V 200255Z AUTO 32007KT 10SM SCT012 SCT021 OVC037 M10/M14 A3003 RMK AO2 T10971136

MVFR

-9.7°C / °C

[أكثر]
رياح 330º 11kt
مجال رؤية 4800m
حالة الطقس -
غيوم Broken Clouds 1300ft
الضغط
Change -
Raw K33V 200235Z AUTO 33011KT 3SM BKN013 OVC019 M10/M13 A3002 RMK AO2 T10971135

IFR

-9°C / °C

[أكثر]
رياح 310º 10kt
مجال رؤية 4000m
حالة الطقس -
غيوم Scattered Clouds 700ft
الضغط
Change -
Raw K33V 200215Z AUTO 31010KT 2 1/2SM SCT007 BKN012 OVC022 M09/M12 A3001 RMK AO2 T10901117

IFR

-8.3°C / °C

[أكثر]
رياح 360º 5kt
مجال رؤية 3200m
حالة الطقس -
غيوم Overcast 800ft
الضغط
Change -
Raw K33V 200155Z AUTO 36005KT 2SM OVC008 M08/M11 A3000 RMK AO2 T10831107

LIFR

-8.3°C / °C

[أكثر]
رياح 340º 6kt
مجال رؤية 1200m
حالة الطقس -
غيوم Overcast 600ft
الضغط
Change -
Raw K33V 200135Z AUTO 34006KT 3/4SM OVC006 M08/M11 A2998 RMK AO2 T10831106

LIFR

-8.2°C / °C

[أكثر]
رياح 320º 9kt
مجال رؤية 800m
حالة الطقس -
غيوم Overcast 600ft
الضغط
Change -
Raw K33V 200115Z AUTO 32009KT 1/2SM OVC006 M08/M11 A2998 RMK AO2 T10821107

IFR

-7°C / -9.5°C

[أكثر]
رياح 310º 7kt
مجال رؤية 2000m
حالة الطقس -
غيوم Scattered Clouds 600ft
الضغط
Change -
Raw K33V 200055Z AUTO 31007KT 1 1/4SM SCT006 BKN010 OVC016 M07/M09 A2998 RMK AO2 T10701095

LIFR

-7°C / °C

[أكثر]
رياح 30º 10kt Gust 15kt
مجال رؤية 1200m
حالة الطقس -
غيوم Overcast 400ft
الضغط
Change -
Raw K33V 200035Z AUTO 03010G15KT 3/4SM OVC004 M07/M10 A2996 RMK AO2 T10701100

LIFR

-5.6°C / -8.4°C

[أكثر]
رياح 30º 8kt
مجال رؤية 400m
حالة الطقس -
غيوم Overcast 400ft
الضغط
Change -
Raw K33V 200015Z AUTO 03008KT 1/4SM OVC004 M06/M08 A2995 RMK AO2 T10561084

IFR

-4°C / -8.7°C

[أكثر]
رياح 50º 6kt
مجال رؤية 2400m
حالة الطقس -
غيوم Scattered Clouds 600ft
الضغط
Change -
Raw K33V 192355Z AUTO 05006KT 1 1/2SM SCT006 BKN010 OVC015 M04/M09 A2993 RMK AO2 T10401087 10097 21040

MVFR

-2.7°C / -8.1°C

[أكثر]
رياح 350º 10kt
مجال رؤية >10km
حالة الطقس -
غيوم Scattered Clouds 2000ft
الضغط
Change -
Raw K33V 192335Z AUTO 35010KT 10SM SCT020 BKN030 OVC044 M03/M08 A2991 RMK AO2 T10271081

VFR

-1.3°C / -6.6°C

[أكثر]
رياح 350º 11kt
مجال رؤية >10km
حالة الطقس -
غيوم Scattered Clouds 2600ft
الضغط
Change -
Raw K33V 192315Z AUTO 35011KT 10SM SCT026 BKN036 OVC046 M01/M07 A2990 RMK AO2 T10131066

MVFR

-1.3°C / -6°C

[أكثر]
رياح 350º 14kt Gust 22kt
مجال رؤية >10km
حالة الطقس -
غيوم Scattered Clouds 1800ft
الضغط
Change -
Raw K33V 192255Z AUTO 35014G22KT 10SM SCT018 BKN026 OVC035 M01/M06 A2988 RMK AO2 T10131060

VFR

-1.3°C / -4.2°C

[أكثر]
رياح 360º 13kt Gust 18kt
مجال رؤية >10km
حالة الطقس -
غيوم Scattered Clouds 400ft
الضغط
Change -
Raw K33V 192235Z AUTO 36013G18KT 10SM SCT004 BKN033 OVC046 M01/M04 A2988 RMK AO2 T10131042

MVFR

-1°C / -3.5°C

[أكثر]
رياح 350º 15kt
مجال رؤية >10km
حالة الطقس -
غيوم Scattered Clouds 500ft
الضغط
Change -
Raw K33V 192215Z AUTO 35015KT 10SM SCT005 BKN012 BKN026 M01/M03 A2987 RMK AO2 T10101035

MVFR

0°C / -2.7°C

[أكثر]
رياح 350º 12kt
مجال رؤية 6400m
حالة الطقس -
غيوم Scattered Clouds 1000ft
الضغط
Change -
Raw K33V 192155Z AUTO 35012KT 4SM SCT010 BKN025 OVC031 00/M03 A2987 RMK AO2 T00001027

VFR

0.9°C / -2.3°C

[أكثر]
رياح 330º 14kt Gust 19kt
مجال رؤية >10km
حالة الطقس -
غيوم Scattered Clouds 2500ft
الضغط
Change -
Raw K33V 192135Z AUTO 33014G19KT 7SM SCT025 BKN034 BKN046 01/M02 A2988 RMK AO2 T00091023

VFR

3.7°C / -3.5°C

[أكثر]
رياح 290º 16kt Gust 20kt
مجال رؤية >10km
حالة الطقس -
غيوم Scattered Clouds 6000ft
الضغط
Change -
Raw K33V 192115Z AUTO 29016G20KT 10SM SCT060 BKN090 04/M03 A2987 RMK AO2 T00371035

Current satellite images for والدن, الولايات المتحدة الأمريكية

المؤشر يدل على موقع والدن. [أكثر]

The real-time satellite image combines visible light during daytime with infrared radiation during nighttime. At night, the image is not dark as infrared radiation can detect temperature differences. Unfortunately, low clouds and fog are difficult to distinguish from ground temperatures and thus can be almost invisible during the night. Meteosat satellite images for Europe are updated in real-time every 5 minutes. GOES-16/GOES-17 (North & South America) and Himawari (Asia) images update every 10 minutes.

رادار وهطول الأمطار التنبؤ الآني لوالدن

مؤشر المكان يشير الى والدن. تظهر في هذه الرسوم المتحركة هطول الامطار بالرادار للساعة الماضية, و توقعات 1h. الأمطار والثلوج الخفيفة يمكن أن تكون غير مرئية للرادار. كثافة هطول الأمطار ممثلة بلون يتدرج من الأزرق الفاتح إلى اللون الأرجواني الغامق.